sensor_id;sensor_type;location;lat;lon;timestamp;P1;durP1;ratioP1;P2;durP2;ratioP2
19235;SDS011;9752;54.270;12.470;2023-02-07T00:01:43;24.27;;;13.87;;
19235;SDS011;9752;54.270;12.470;2023-02-07T00:06:45;18.93;;;12.23;;
19235;SDS011;9752;54.270;12.470;2023-02-07T00:11:47;20.27;;;13.37;;
19235;SDS011;9752;54.270;12.470;2023-02-07T00:16:49;19.20;;;12.90;;
19235;SDS011;9752;54.270;12.470;2023-02-07T00:21:52;22.10;;;12.93;;
19235;SDS011;9752;54.270;12.470;2023-02-07T00:26:54;19.50;;;12.80;;
19235;SDS011;9752;54.270;12.470;2023-02-07T00:31:55;18.10;;;10.70;;
19235;SDS011;9752;54.270;12.470;2023-02-07T00:36:59;16.80;;;11.83;;
19235;SDS011;9752;54.270;12.470;2023-02-07T00:42:01;14.50;;;11.30;;
19235;SDS011;9752;54.270;12.470;2023-02-07T00:47:03;19.07;;;12.40;;
19235;SDS011;9752;54.270;12.470;2023-02-07T00:52:06;15.53;;;11.80;;
19235;SDS011;9752;54.270;12.470;2023-02-07T00:57:07;17.17;;;12.00;;
19235;SDS011;9752;54.270;12.470;2023-02-07T01:02:09;18.87;;;11.83;;
19235;SDS011;9752;54.270;12.470;2023-02-07T01:07:12;21.83;;;12.97;;
19235;SDS011;9752;54.270;12.470;2023-02-07T01:12:15;18.43;;;12.00;;
19235;SDS011;9752;54.270;12.470;2023-02-07T01:17:16;16.83;;;12.67;;
19235;SDS011;9752;54.270;12.470;2023-02-07T01:22:19;18.33;;;11.40;;
19235;SDS011;9752;54.270;12.470;2023-02-07T01:27:21;16.67;;;11.33;;
19235;SDS011;9752;54.270;12.470;2023-02-07T01:32:24;22.03;;;14.30;;
19235;SDS011;9752;54.270;12.470;2023-02-07T01:37:27;24.67;;;14.03;;
19235;SDS011;9752;54.270;12.470;2023-02-07T01:42:30;30.60;;;16.60;;
19235;SDS011;9752;54.270;12.470;2023-02-07T01:47:31;35.90;;;18.27;;
19235;SDS011;9752;54.270;12.470;2023-02-07T01:52:36;33.90;;;18.07;;
19235;SDS011;9752;54.270;12.470;2023-02-07T01:57:41;36.17;;;19.00;;
19235;SDS011;9752;54.270;12.470;2023-02-07T02:02:45;30.77;;;17.83;;
19235;SDS011;9752;54.270;12.470;2023-02-07T02:07:48;32.20;;;18.87;;
19235;SDS011;9752;54.270;12.470;2023-02-07T02:12:57;40.17;;;19.00;;
19235;SDS011;9752;54.270;12.470;2023-02-07T02:18:19;32.10;;;17.80;;
19235;SDS011;9752;54.270;12.470;2023-02-07T02:23:34;33.20;;;18.10;;
19235;SDS011;9752;54.270;12.470;2023-02-07T02:34:15;33.00;;;18.53;;
19235;SDS011;9752;54.270;12.470;2023-02-07T02:39:22;36.43;;;22.07;;
19235;SDS011;9752;54.270;12.470;2023-02-07T02:44:32;39.30;;;22.27;;
19235;SDS011;9752;54.270;12.470;2023-02-07T02:49:40;45.17;;;23.70;;
19235;SDS011;9752;54.270;12.470;2023-02-07T02:54:44;41.33;;;22.60;;
19235;SDS011;9752;54.270;12.470;2023-02-07T03:00:02;42.13;;;22.43;;
19235;SDS011;9752;54.270;12.470;2023-02-07T03:05:34;44.63;;;22.83;;
19235;SDS011;9752;54.270;12.470;2023-02-07T03:10:47;42.13;;;23.00;;
19235;SDS011;9752;54.270;12.470;2023-02-07T03:15:59;47.97;;;24.53;;
19235;SDS011;9752;54.270;12.470;2023-02-07T03:21:07;33.33;;;21.47;;
19235;SDS011;9752;54.270;12.470;2023-02-07T03:26:16;44.50;;;25.03;;
19235;SDS011;9752;54.270;12.470;2023-02-07T03:31:18;42.93;;;24.27;;
19235;SDS011;9752;54.270;12.470;2023-02-07T03:36:26;46.07;;;24.73;;
19235;SDS011;9752;54.270;12.470;2023-02-07T03:41:33;40.00;;;22.87;;
19235;SDS011;9752;54.270;12.470;2023-02-07T03:46:41;44.93;;;23.53;;
19235;SDS011;9752;54.270;12.470;2023-02-07T03:51:45;45.33;;;23.70;;
19235;SDS011;9752;54.270;12.470;2023-02-07T03:56:47;47.93;;;23.90;;
19235;SDS011;9752;54.270;12.470;2023-02-07T04:01:49;51.93;;;24.43;;
19235;SDS011;9752;54.270;12.470;2023-02-07T04:06:52;46.20;;;25.43;;
19235;SDS011;9752;54.270;12.470;2023-02-07T04:11:54;49.73;;;26.53;;
19235;SDS011;9752;54.270;12.470;2023-02-07T04:16:55;42.60;;;24.37;;
19235;SDS011;9752;54.270;12.470;2023-02-07T04:21:59;47.53;;;25.50;;
19235;SDS011;9752;54.270;12.470;2023-02-07T04:27:00;50.50;;;26.87;;
19235;SDS011;9752;54.270;12.470;2023-02-07T04:32:02;46.40;;;26.07;;
19235;SDS011;9752;54.270;12.470;2023-02-07T04:37:05;61.37;;;31.67;;
19235;SDS011;9752;54.270;12.470;2023-02-07T04:42:07;56.53;;;27.77;;
19235;SDS011;9752;54.270;12.470;2023-02-07T04:47:08;58.97;;;28.00;;
19235;SDS011;9752;54.270;12.470;2023-02-07T04:52:11;54.27;;;28.87;;
19235;SDS011;9752;54.270;12.470;2023-02-07T04:57:14;54.00;;;25.97;;
19235;SDS011;9752;54.270;12.470;2023-02-07T05:02:16;61.73;;;28.97;;
19235;SDS011;9752;54.270;12.470;2023-02-07T05:07:19;54.97;;;28.43;;
19235;SDS011;9752;54.270;12.470;2023-02-07T05:12:20;50.43;;;27.67;;
19235;SDS011;9752;54.270;12.470;2023-02-07T05:17:22;51.13;;;27.37;;
19235;SDS011;9752;54.270;12.470;2023-02-07T05:22:25;50.10;;;26.30;;
19235;SDS011;9752;54.270;12.470;2023-02-07T05:27:27;53.50;;;28.10;;
19235;SDS011;9752;54.270;12.470;2023-02-07T05:32:28;63.13;;;30.57;;
19235;SDS011;9752;54.270;12.470;2023-02-07T05:37:49;60.73;;;31.03;;
19235;SDS011;9752;54.270;12.470;2023-02-07T05:42:51;57.47;;;30.73;;
19235;SDS011;9752;54.270;12.470;2023-02-07T05:47:52;48.63;;;26.07;;
19235;SDS011;9752;54.270;12.470;2023-02-07T05:52:55;55.87;;;29.07;;
19235;SDS011;9752;54.270;12.470;2023-02-07T05:57:57;62.30;;;31.13;;
19235;SDS011;9752;54.270;12.470;2023-02-07T06:02:59;56.13;;;28.90;;
19235;SDS011;9752;54.270;12.470;2023-02-07T06:08:02;61.97;;;30.43;;
19235;SDS011;9752;54.270;12.470;2023-02-07T06:13:04;57.27;;;27.80;;
19235;SDS011;9752;54.270;12.470;2023-02-07T06:18:05;46.73;;;27.67;;
19235;SDS011;9752;54.270;12.470;2023-02-07T06:23:09;59.23;;;31.50;;
19235;SDS011;9752;54.270;12.470;2023-02-07T06:28:10;60.83;;;30.00;;
19235;SDS011;9752;54.270;12.470;2023-02-07T06:33:12;58.63;;;29.43;;
19235;SDS011;9752;54.270;12.470;2023-02-07T06:38:15;55.47;;;28.93;;
19235;SDS011;9752;54.270;12.470;2023-02-07T06:43:18;57.57;;;30.33;;
19235;SDS011;9752;54.270;12.470;2023-02-07T06:48:19;53.03;;;28.13;;
19235;SDS011;9752;54.270;12.470;2023-02-07T06:53:23;52.87;;;30.27;;
19235;SDS011;9752;54.270;12.470;2023-02-07T06:58:25;56.40;;;28.70;;
19235;SDS011;9752;54.270;12.470;2023-02-07T07:03:27;55.40;;;29.53;;
19235;SDS011;9752;54.270;12.470;2023-02-07T07:08:30;63.53;;;31.30;;
19235;SDS011;9752;54.270;12.470;2023-02-07T07:13:31;61.40;;;30.47;;
19235;SDS011;9752;54.270;12.470;2023-02-07T07:18:33;61.87;;;30.90;;
19235;SDS011;9752;54.270;12.470;2023-02-07T07:23:38;69.73;;;31.83;;
19235;SDS011;9752;54.270;12.470;2023-02-07T07:28:39;67.40;;;33.77;;
19235;SDS011;9752;54.270;12.470;2023-02-07T07:33:41;59.63;;;31.87;;
19235;SDS011;9752;54.270;12.470;2023-02-07T07:38:44;59.80;;;31.60;;
19235;SDS011;9752;54.270;12.470;2023-02-07T07:43:46;57.70;;;29.77;;
19235;SDS011;9752;54.270;12.470;2023-02-07T07:48:47;56.20;;;30.20;;
19235;SDS011;9752;54.270;12.470;2023-02-07T07:53:51;49.83;;;28.20;;
19235;SDS011;9752;54.270;12.470;2023-02-07T07:58:52;58.93;;;29.27;;
19235;SDS011;9752;54.270;12.470;2023-02-07T08:03:54;56.13;;;29.57;;
19235;SDS011;9752;54.270;12.470;2023-02-07T08:08:57;62.63;;;30.73;;
19235;SDS011;9752;54.270;12.470;2023-02-07T08:13:59;54.17;;;29.17;;
19235;SDS011;9752;54.270;12.470;2023-02-07T08:19:00;63.37;;;32.47;;
19235;SDS011;9752;54.270;12.470;2023-02-07T08:24:04;59.03;;;29.63;;
19235;SDS011;9752;54.270;12.470;2023-02-07T08:29:06;62.53;;;31.10;;
19235;SDS011;9752;54.270;12.470;2023-02-07T08:34:08;60.20;;;31.27;;
19235;SDS011;9752;54.270;12.470;2023-02-07T08:39:12;56.23;;;29.00;;
19235;SDS011;9752;54.270;12.470;2023-02-07T08:44:14;51.37;;;28.40;;
19235;SDS011;9752;54.270;12.470;2023-02-07T08:49:15;55.90;;;28.73;;
19235;SDS011;9752;54.270;12.470;2023-02-07T08:54:18;58.00;;;30.33;;
19235;SDS011;9752;54.270;12.470;2023-02-07T08:59:20;51.40;;;28.80;;
19235;SDS011;9752;54.270;12.470;2023-02-07T09:04:22;54.57;;;29.17;;
19235;SDS011;9752;54.270;12.470;2023-02-07T09:09:25;56.47;;;29.13;;
19235;SDS011;9752;54.270;12.470;2023-02-07T09:14:26;56.23;;;30.33;;
19235;SDS011;9752;54.270;12.470;2023-02-07T09:19:28;52.30;;;29.07;;
19235;SDS011;9752;54.270;12.470;2023-02-07T09:24:31;48.77;;;27.73;;
19235;SDS011;9752;54.270;12.470;2023-02-07T09:29:33;51.73;;;28.50;;
19235;SDS011;9752;54.270;12.470;2023-02-07T09:34:35;54.13;;;30.73;;
19235;SDS011;9752;54.270;12.470;2023-02-07T09:39:38;53.40;;;28.67;;
19235;SDS011;9752;54.270;12.470;2023-02-07T09:44:44;46.80;;;25.87;;
19235;SDS011;9752;54.270;12.470;2023-02-07T09:49:54;44.03;;;25.77;;
19235;SDS011;9752;54.270;12.470;2023-02-07T09:55:00;47.00;;;27.20;;
19235;SDS011;9752;54.270;12.470;2023-02-07T10:00:05;42.70;;;25.27;;
19235;SDS011;9752;54.270;12.470;2023-02-07T10:05:19;42.27;;;24.77;;
19235;SDS011;9752;54.270;12.470;2023-02-07T10:10:30;41.80;;;24.73;;
19235;SDS011;9752;54.270;12.470;2023-02-07T10:15:40;39.47;;;24.70;;
19235;SDS011;9752;54.270;12.470;2023-02-07T10:20:50;41.10;;;24.50;;
19235;SDS011;9752;54.270;12.470;2023-02-07T10:26:03;41.00;;;25.07;;
19235;SDS011;9752;54.270;12.470;2023-02-07T10:31:11;31.33;;;21.13;;
19235;SDS011;9752;54.270;12.470;2023-02-07T10:36:15;37.63;;;23.03;;
19235;SDS011;9752;54.270;12.470;2023-02-07T10:41:20;32.43;;;23.13;;
19235;SDS011;9752;54.270;12.470;2023-02-07T10:46:33;30.70;;;21.10;;
19235;SDS011;9752;54.270;12.470;2023-02-07T10:51:37;30.60;;;19.97;;
19235;SDS011;9752;54.270;12.470;2023-02-07T10:56:45;25.57;;;19.23;;
19235;SDS011;9752;54.270;12.470;2023-02-07T11:01:51;27.10;;;19.13;;
19235;SDS011;9752;54.270;12.470;2023-02-07T11:06:58;24.60;;;19.50;;
19235;SDS011;9752;54.270;12.470;2023-02-07T11:12:11;23.60;;;20.30;;
19235;SDS011;9752;54.270;12.470;2023-02-07T11:17:15;21.13;;;18.67;;
19235;SDS011;9752;54.270;12.470;2023-02-07T11:22:21;19.37;;;17.40;;
19235;SDS011;9752;54.270;12.470;2023-02-07T11:27:26;22.80;;;19.60;;
19235;SDS011;9752;54.270;12.470;2023-02-07T11:32:28;20.40;;;18.40;;
19235;SDS011;9752;54.270;12.470;2023-02-07T11:37:31;19.93;;;18.03;;
19235;SDS011;9752;54.270;12.470;2023-02-07T11:42:35;20.70;;;18.70;;
19235;SDS011;9752;54.270;12.470;2023-02-07T11:47:37;22.67;;;20.30;;
19235;SDS011;9752;54.270;12.470;2023-02-07T11:52:47;22.53;;;20.20;;
19235;SDS011;9752;54.270;12.470;2023-02-07T11:57:54;22.30;;;20.00;;
19235;SDS011;9752;54.270;12.470;2023-02-07T12:02:58;22.53;;;20.23;;
19235;SDS011;9752;54.270;12.470;2023-02-07T12:08:03;20.17;;;18.33;;
19235;SDS011;9752;54.270;12.470;2023-02-07T12:13:12;22.33;;;19.87;;
19235;SDS011;9752;54.270;12.470;2023-02-07T12:18:19;20.13;;;18.20;;
19235;SDS011;9752;54.270;12.470;2023-02-07T12:23:31;20.70;;;18.77;;
19235;SDS011;9752;54.270;12.470;2023-02-07T12:28:41;20.43;;;18.53;;
19235;SDS011;9752;54.270;12.470;2023-02-07T12:33:49;18.97;;;17.67;;
19235;SDS011;9752;54.270;12.470;2023-02-07T12:38:59;17.63;;;16.53;;
19235;SDS011;9752;54.270;12.470;2023-02-07T12:44:08;20.07;;;18.57;;
19235;SDS011;9752;54.270;12.470;2023-02-07T12:49:31;18.87;;;17.50;;
19235;SDS011;9752;54.270;12.470;2023-02-07T12:54:52;19.40;;;18.00;;
19235;SDS011;9752;54.270;12.470;2023-02-07T13:00:07;19.67;;;18.07;;
19235;SDS011;9752;54.270;12.470;2023-02-07T13:05:33;20.33;;;18.83;;
19235;SDS011;9752;54.270;12.470;2023-02-07T13:10:55;19.23;;;17.83;;
19235;SDS011;9752;54.270;12.470;2023-02-07T13:16:09;19.23;;;17.73;;
19235;SDS011;9752;54.270;12.470;2023-02-07T13:21:18;19.70;;;18.23;;
19235;SDS011;9752;54.270;12.470;2023-02-07T13:26:23;19.90;;;18.33;;
19235;SDS011;9752;54.270;12.470;2023-02-07T13:31:30;19.37;;;17.90;;
19235;SDS011;9752;54.270;12.470;2023-02-07T13:36:38;20.17;;;18.53;;
19235;SDS011;9752;54.270;12.470;2023-02-07T13:41:44;19.70;;;18.10;;
19235;SDS011;9752;54.270;12.470;2023-02-07T13:47:00;18.67;;;16.97;;
19235;SDS011;9752;54.270;12.470;2023-02-07T13:52:17;18.50;;;17.30;;
19235;SDS011;9752;54.270;12.470;2023-02-07T13:57:37;20.00;;;18.27;;
19235;SDS011;9752;54.270;12.470;2023-02-07T14:03:00;19.30;;;17.80;;
19235;SDS011;9752;54.270;12.470;2023-02-07T14:08:04;20.63;;;18.70;;
19235;SDS011;9752;54.270;12.470;2023-02-07T14:13:26;19.30;;;17.70;;
19235;SDS011;9752;54.270;12.470;2023-02-07T14:24:01;20.60;;;18.90;;
19235;SDS011;9752;54.270;12.470;2023-02-07T14:29:37;21.70;;;19.80;;
19235;SDS011;9752;54.270;12.470;2023-02-07T14:35:05;21.90;;;19.80;;
19235;SDS011;9752;54.270;12.470;2023-02-07T14:40:23;20.77;;;18.97;;
19235;SDS011;9752;54.270;12.470;2023-02-07T14:45:31;20.07;;;17.97;;
19235;SDS011;9752;54.270;12.470;2023-02-07T14:50:36;22.53;;;19.60;;
19235;SDS011;9752;54.270;12.470;2023-02-07T14:55:40;23.47;;;21.07;;
19235;SDS011;9752;54.270;12.470;2023-02-07T15:00:48;20.27;;;18.30;;
19235;SDS011;9752;54.270;12.470;2023-02-07T15:05:56;22.30;;;20.20;;
19235;SDS011;9752;54.270;12.470;2023-02-07T15:11:00;22.20;;;20.30;;
19235;SDS011;9752;54.270;12.470;2023-02-07T15:16:04;21.60;;;19.53;;
19235;SDS011;9752;54.270;12.470;2023-02-07T15:21:10;21.73;;;19.63;;
19235;SDS011;9752;54.270;12.470;2023-02-07T15:26:17;22.83;;;20.80;;
19235;SDS011;9752;54.270;12.470;2023-02-07T15:31:20;21.87;;;19.73;;
19235;SDS011;9752;54.270;12.470;2023-02-07T15:36:27;22.70;;;20.30;;
19235;SDS011;9752;54.270;12.470;2023-02-07T15:41:31;23.13;;;20.80;;
19235;SDS011;9752;54.270;12.470;2023-02-07T15:46:44;24.00;;;21.37;;
19235;SDS011;9752;54.270;12.470;2023-02-07T15:51:48;22.83;;;20.63;;
19235;SDS011;9752;54.270;12.470;2023-02-07T15:56:56;24.23;;;21.77;;
19235;SDS011;9752;54.270;12.470;2023-02-07T16:02:00;25.93;;;23.43;;
19235;SDS011;9752;54.270;12.470;2023-02-07T16:07:05;23.43;;;21.30;;
19235;SDS011;9752;54.270;12.470;2023-02-07T16:17:47;26.83;;;24.17;;
19235;SDS011;9752;54.270;12.470;2023-02-07T16:22:50;28.30;;;24.50;;
19235;SDS011;9752;54.270;12.470;2023-02-07T16:27:52;25.93;;;23.20;;
19235;SDS011;9752;54.270;12.470;2023-02-07T16:32:54;26.40;;;23.57;;
19235;SDS011;9752;54.270;12.470;2023-02-07T16:37:57;26.10;;;23.17;;
19235;SDS011;9752;54.270;12.470;2023-02-07T16:42:59;25.67;;;23.07;;
19235;SDS011;9752;54.270;12.470;2023-02-07T16:48:04;23.87;;;20.63;;
19235;SDS011;9752;54.270;12.470;2023-02-07T16:53:11;51.87;;;37.07;;
19235;SDS011;9752;54.270;12.470;2023-02-07T16:58:14;26.97;;;21.33;;
19235;SDS011;9752;54.270;12.470;2023-02-07T17:03:22;28.10;;;21.23;;
19235;SDS011;9752;54.270;12.470;2023-02-07T17:08:25;30.20;;;22.97;;
19235;SDS011;9752;54.270;12.470;2023-02-07T17:13:29;31.13;;;22.53;;
19235;SDS011;9752;54.270;12.470;2023-02-07T17:18:30;30.83;;;21.97;;
19235;SDS011;9752;54.270;12.470;2023-02-07T17:23:33;26.87;;;21.33;;
19235;SDS011;9752;54.270;12.470;2023-02-07T17:28:35;43.90;;;29.70;;
19235;SDS011;9752;54.270;12.470;2023-02-07T17:33:37;74.47;;;44.67;;
19235;SDS011;9752;54.270;12.470;2023-02-07T17:38:40;57.27;;;35.57;;
19235;SDS011;9752;54.270;12.470;2023-02-07T17:43:42;55.80;;;35.00;;
19235;SDS011;9752;54.270;12.470;2023-02-07T17:48:44;47.07;;;30.87;;
19235;SDS011;9752;54.270;12.470;2023-02-07T17:53:48;42.97;;;27.47;;
19235;SDS011;9752;54.270;12.470;2023-02-07T17:58:50;43.73;;;24.90;;
19235;SDS011;9752;54.270;12.470;2023-02-07T18:03:52;38.90;;;24.00;;
19235;SDS011;9752;54.270;12.470;2023-02-07T18:08:56;31.33;;;22.67;;
19235;SDS011;9752;54.270;12.470;2023-02-07T18:13:58;39.37;;;25.57;;
19235;SDS011;9752;54.270;12.470;2023-02-07T18:19:02;37.20;;;25.73;;
19235;SDS011;9752;54.270;12.470;2023-02-07T18:24:05;38.53;;;27.07;;
19235;SDS011;9752;54.270;12.470;2023-02-07T18:29:07;38.43;;;25.83;;
19235;SDS011;9752;54.270;12.470;2023-02-07T18:34:09;30.97;;;22.43;;
19235;SDS011;9752;54.270;12.470;2023-02-07T18:39:12;35.67;;;23.90;;
19235;SDS011;9752;54.270;12.470;2023-02-07T18:44:14;34.57;;;23.97;;
19235;SDS011;9752;54.270;12.470;2023-02-07T18:49:15;36.00;;;24.57;;
19235;SDS011;9752;54.270;12.470;2023-02-07T18:54:18;39.10;;;27.37;;
19235;SDS011;9752;54.270;12.470;2023-02-07T18:59:20;41.60;;;27.57;;
19235;SDS011;9752;54.270;12.470;2023-02-07T19:04:23;36.90;;;24.27;;
19235;SDS011;9752;54.270;12.470;2023-02-07T19:09:26;39.53;;;26.77;;
19235;SDS011;9752;54.270;12.470;2023-02-07T19:14:28;35.63;;;25.20;;
19235;SDS011;9752;54.270;12.470;2023-02-07T19:19:31;38.10;;;26.17;;
19235;SDS011;9752;54.270;12.470;2023-02-07T19:24:35;41.53;;;26.30;;
19235;SDS011;9752;54.270;12.470;2023-02-07T19:29:37;47.53;;;28.97;;
19235;SDS011;9752;54.270;12.470;2023-02-07T19:34:38;41.00;;;27.47;;
19235;SDS011;9752;54.270;12.470;2023-02-07T19:39:43;41.43;;;27.23;;
19235;SDS011;9752;54.270;12.470;2023-02-07T19:44:45;42.30;;;28.03;;
19235;SDS011;9752;54.270;12.470;2023-02-07T19:49:48;40.50;;;29.33;;
19235;SDS011;9752;54.270;12.470;2023-02-07T19:54:52;53.70;;;34.93;;
19235;SDS011;9752;54.270;12.470;2023-02-07T19:59:54;51.57;;;33.40;;
19235;SDS011;9752;54.270;12.470;2023-02-07T20:04:55;53.57;;;33.07;;
19235;SDS011;9752;54.270;12.470;2023-02-07T20:09:59;54.43;;;32.37;;
19235;SDS011;9752;54.270;12.470;2023-02-07T20:15:01;50.30;;;32.07;;
19235;SDS011;9752;54.270;12.470;2023-02-07T20:20:03;51.80;;;28.93;;
19235;SDS011;9752;54.270;12.470;2023-02-07T20:25:07;48.47;;;28.40;;
19235;SDS011;9752;54.270;12.470;2023-02-07T20:30:09;55.20;;;32.10;;
19235;SDS011;9752;54.270;12.470;2023-02-07T20:35:11;60.20;;;39.40;;
19235;SDS011;9752;54.270;12.470;2023-02-07T20:40:15;56.03;;;36.63;;
19235;SDS011;9752;54.270;12.470;2023-02-07T20:45:17;54.87;;;35.10;;
19235;SDS011;9752;54.270;12.470;2023-02-07T20:50:19;46.43;;;29.50;;
19235;SDS011;9752;54.270;12.470;2023-02-07T20:55:22;55.43;;;31.37;;
19235;SDS011;9752;54.270;12.470;2023-02-07T21:00:24;53.03;;;31.97;;
19235;SDS011;9752;54.270;12.470;2023-02-07T21:05:26;47.20;;;30.70;;
19235;SDS011;9752;54.270;12.470;2023-02-07T21:10:29;56.77;;;31.77;;
19235;SDS011;9752;54.270;12.470;2023-02-07T21:15:31;47.97;;;28.73;;
19235;SDS011;9752;54.270;12.470;2023-02-07T21:20:32;47.77;;;28.40;;
19235;SDS011;9752;54.270;12.470;2023-02-07T21:25:38;62.90;;;33.83;;
19235;SDS011;9752;54.270;12.470;2023-02-07T21:30:40;82.57;;;40.00;;
19235;SDS011;9752;54.270;12.470;2023-02-07T21:35:42;67.47;;;38.77;;
19235;SDS011;9752;54.270;12.470;2023-02-07T21:40:45;70.03;;;34.40;;
19235;SDS011;9752;54.270;12.470;2023-02-07T21:45:46;61.10;;;35.27;;
19235;SDS011;9752;54.270;12.470;2023-02-07T21:50:48;59.63;;;32.27;;
19235;SDS011;9752;54.270;12.470;2023-02-07T21:55:51;49.57;;;29.00;;
19235;SDS011;9752;54.270;12.470;2023-02-07T22:00:53;60.13;;;31.93;;
19235;SDS011;9752;54.270;12.470;2023-02-07T22:05:54;51.77;;;30.37;;
19235;SDS011;9752;54.270;12.470;2023-02-07T22:11:00;52.13;;;29.10;;
19235;SDS011;9752;54.270;12.470;2023-02-07T22:16:02;57.83;;;30.63;;
19235;SDS011;9752;54.270;12.470;2023-02-07T22:21:05;56.70;;;32.57;;
19235;SDS011;9752;54.270;12.470;2023-02-07T22:26:10;54.83;;;31.63;;
19235;SDS011;9752;54.270;12.470;2023-02-07T22:31:12;56.97;;;32.50;;
19235;SDS011;9752;54.270;12.470;2023-02-07T22:36:16;59.53;;;31.07;;
19235;SDS011;9752;54.270;12.470;2023-02-07T22:41:20;59.73;;;32.80;;
19235;SDS011;9752;54.270;12.470;2023-02-07T22:46:22;55.80;;;31.63;;
19235;SDS011;9752;54.270;12.470;2023-02-07T22:51:26;58.70;;;32.50;;
19235;SDS011;9752;54.270;12.470;2023-02-07T22:56:30;67.23;;;35.27;;
19235;SDS011;9752;54.270;12.470;2023-02-07T23:01:33;59.77;;;32.40;;
19235;SDS011;9752;54.270;12.470;2023-02-07T23:06:37;64.20;;;31.57;;
19235;SDS011;9752;54.270;12.470;2023-02-07T23:11:40;63.90;;;32.70;;
19235;SDS011;9752;54.270;12.470;2023-02-07T23:16:42;56.17;;;32.27;;
19235;SDS011;9752;54.270;12.470;2023-02-07T23:21:44;64.63;;;34.67;;
19235;SDS011;9752;54.270;12.470;2023-02-07T23:26:47;60.17;;;30.90;;
19235;SDS011;9752;54.270;12.470;2023-02-07T23:31:48;63.33;;;32.67;;
19235;SDS011;9752;54.270;12.470;2023-02-07T23:36:50;57.73;;;31.47;;
19235;SDS011;9752;54.270;12.470;2023-02-07T23:41:53;58.50;;;31.43;;
19235;SDS011;9752;54.270;12.470;2023-02-07T23:46:57;50.93;;;29.30;;
19235;SDS011;9752;54.270;12.470;2023-02-07T23:51:58;61.63;;;32.30;;
19235;SDS011;9752;54.270;12.470;2023-02-07T23:57:01;52.83;;;29.07;;
